sensor_id;sensor_type;location;lat;lon;timestamp;P1;durP1;ratioP1;P2;durP2;ratioP2
27019;SDS011;76819;49.098;11.826;2024-03-02T00:02:06;114.53;;;55.17;;
27019;SDS011;76819;49.098;11.826;2024-03-02T00:07:10;101.40;;;52.55;;
27019;SDS011;76819;49.098;11.826;2024-03-02T00:17:21;114.57;;;56.53;;
27019;SDS011;76819;49.098;11.826;2024-03-02T00:27:31;131.73;;;59.47;;
27019;SDS011;76819;49.098;11.826;2024-03-02T00:32:34;140.68;;;61.55;;
27019;SDS011;76819;49.098;11.826;2024-03-02T00:37:38;130.95;;;61.60;;
27019;SDS011;76819;49.098;11.826;2024-03-02T00:42:41;152.98;;;66.40;;
27019;SDS011;76819;49.098;11.826;2024-03-02T00:47:44;124.05;;;59.75;;
27019;SDS011;76819;49.098;11.826;2024-03-02T00:52:48;127.43;;;61.97;;
27019;SDS011;76819;49.098;11.826;2024-03-02T00:57:50;122.63;;;62.40;;
27019;SDS011;76819;49.098;11.826;2024-03-02T01:02:53;143.70;;;64.93;;
27019;SDS011;76819;49.098;11.826;2024-03-02T01:07:57;148.05;;;67.10;;
27019;SDS011;76819;49.098;11.826;2024-03-02T01:13:00;145.23;;;65.85;;
27019;SDS011;76819;49.098;11.826;2024-03-02T01:18:03;159.52;;;69.40;;
27019;SDS011;76819;49.098;11.826;2024-03-02T01:23:07;135.75;;;63.75;;
27019;SDS011;76819;49.098;11.826;2024-03-02T01:28:10;138.98;;;64.15;;
27019;SDS011;76819;49.098;11.826;2024-03-02T01:33:12;139.75;;;61.60;;
27019;SDS011;76819;49.098;11.826;2024-03-02T01:38:17;149.65;;;66.32;;
27019;SDS011;76819;49.098;11.826;2024-03-02T01:43:19;135.65;;;62.55;;
27019;SDS011;76819;49.098;11.826;2024-03-02T01:48:22;147.00;;;67.05;;
27019;SDS011;76819;49.098;11.826;2024-03-02T01:53:26;126.10;;;60.38;;
27019;SDS011;76819;49.098;11.826;2024-03-02T01:58:29;138.98;;;63.58;;
27019;SDS011;76819;49.098;11.826;2024-03-02T02:03:32;181.70;;;69.25;;
27019;SDS011;76819;49.098;11.826;2024-03-02T02:08:36;137.50;;;61.50;;
27019;SDS011;76819;49.098;11.826;2024-03-02T02:13:39;116.55;;;57.08;;
27019;SDS011;76819;49.098;11.826;2024-03-02T02:18:41;139.43;;;59.10;;
27019;SDS011;76819;49.098;11.826;2024-03-02T02:23:45;140.35;;;58.45;;
27019;SDS011;76819;49.098;11.826;2024-03-02T02:28:49;116.35;;;56.05;;
27019;SDS011;76819;49.098;11.826;2024-03-02T02:33:52;135.93;;;59.25;;
27019;SDS011;76819;49.098;11.826;2024-03-02T02:38:56;136.63;;;57.83;;
27019;SDS011;76819;49.098;11.826;2024-03-02T02:44:01;161.88;;;58.00;;
27019;SDS011;76819;49.098;11.826;2024-03-02T02:49:03;127.95;;;53.25;;
27019;SDS011;76819;49.098;11.826;2024-03-02T02:54:08;130.88;;;56.17;;
27019;SDS011;76819;49.098;11.826;2024-03-02T02:59:10;108.57;;;51.17;;
27019;SDS011;76819;49.098;11.826;2024-03-02T03:04:13;113.47;;;53.20;;
27019;SDS011;76819;49.098;11.826;2024-03-02T03:09:17;136.80;;;56.47;;
27019;SDS011;76819;49.098;11.826;2024-03-02T03:14:20;145.90;;;50.90;;
27019;SDS011;76819;49.098;11.826;2024-03-02T03:19:22;134.55;;;56.13;;
27019;SDS011;76819;49.098;11.826;2024-03-02T03:24:26;153.98;;;47.42;;
27019;SDS011;76819;49.098;11.826;2024-03-02T03:29:29;155.68;;;49.08;;
27019;SDS011;76819;49.098;11.826;2024-03-02T03:34:32;157.15;;;46.83;;
27019;SDS011;76819;49.098;11.826;2024-03-02T03:39:36;91.07;;;44.83;;
27019;SDS011;76819;49.098;11.826;2024-03-02T03:44:39;79.88;;;40.38;;
27019;SDS011;76819;49.098;11.826;2024-03-02T03:49:43;94.25;;;42.33;;
27019;SDS011;76819;49.098;11.826;2024-03-02T03:54:47;82.32;;;38.58;;
27019;SDS011;76819;49.098;11.826;2024-03-02T03:59:49;83.22;;;41.65;;
27019;SDS011;76819;49.098;11.826;2024-03-02T04:04:52;96.35;;;45.25;;
27019;SDS011;76819;49.098;11.826;2024-03-02T04:09:56;67.90;;;35.88;;
27019;SDS011;76819;49.098;11.826;2024-03-02T04:14:59;71.78;;;36.97;;
27019;SDS011;76819;49.098;11.826;2024-03-02T04:20:03;71.43;;;36.72;;
27019;SDS011;76819;49.098;11.826;2024-03-02T04:25:08;63.63;;;34.08;;
27019;SDS011;76819;49.098;11.826;2024-03-02T04:30:11;76.47;;;37.90;;
27019;SDS011;76819;49.098;11.826;2024-03-02T04:35:14;59.60;;;32.95;;
27019;SDS011;76819;49.098;11.826;2024-03-02T04:40:18;104.28;;;37.00;;
27019;SDS011;76819;49.098;11.826;2024-03-02T04:45:21;65.95;;;32.40;;
27019;SDS011;76819;49.098;11.826;2024-03-02T04:50:24;65.03;;;34.03;;
27019;SDS011;76819;49.098;11.826;2024-03-02T04:55:28;79.60;;;37.72;;
27019;SDS011;76819;49.098;11.826;2024-03-02T05:00:47;42.50;;;28.15;;
27019;SDS011;76819;49.098;11.826;2024-03-02T05:05:50;55.20;;;32.13;;
27019;SDS011;76819;49.098;11.826;2024-03-02T05:10:54;60.65;;;31.80;;
27019;SDS011;76819;49.098;11.826;2024-03-02T05:16:16;52.03;;;28.67;;
27019;SDS011;76819;49.098;11.826;2024-03-02T05:21:19;80.65;;;33.83;;
27019;SDS011;76819;49.098;11.826;2024-03-02T05:26:23;112.65;;;41.72;;
27019;SDS011;76819;49.098;11.826;2024-03-02T05:31:26;68.38;;;31.08;;
27019;SDS011;76819;49.098;11.826;2024-03-02T05:36:29;61.92;;;31.17;;
27019;SDS011;76819;49.098;11.826;2024-03-02T05:41:33;75.50;;;35.40;;
27019;SDS011;76819;49.098;11.826;2024-03-02T05:46:36;93.18;;;31.20;;
27019;SDS011;76819;49.098;11.826;2024-03-02T05:51:41;72.40;;;31.80;;
27019;SDS011;76819;49.098;11.826;2024-03-02T05:56:45;80.50;;;32.63;;
27019;SDS011;76819;49.098;11.826;2024-03-02T06:01:48;141.85;;;33.58;;
27019;SDS011;76819;49.098;11.826;2024-03-02T06:06:52;134.35;;;33.70;;
27019;SDS011;76819;49.098;11.826;2024-03-02T06:11:57;85.72;;;33.40;;
27019;SDS011;76819;49.098;11.826;2024-03-02T06:16:59;106.18;;;40.10;;
27019;SDS011;76819;49.098;11.826;2024-03-02T06:22:02;151.90;;;38.58;;
27019;SDS011;76819;49.098;11.826;2024-03-02T06:27:06;203.27;;;42.08;;
27019;SDS011;76819;49.098;11.826;2024-03-02T06:32:09;91.93;;;36.42;;
27019;SDS011;76819;49.098;11.826;2024-03-02T06:37:11;107.07;;;38.95;;
27019;SDS011;76819;49.098;11.826;2024-03-02T06:42:16;133.55;;;35.53;;
27019;SDS011;76819;49.098;11.826;2024-03-02T06:47:18;215.00;;;40.63;;
27019;SDS011;76819;49.098;11.826;2024-03-02T06:52:21;299.45;;;51.03;;
27019;SDS011;76819;49.098;11.826;2024-03-02T06:57:26;109.90;;;34.75;;
27019;SDS011;76819;49.098;11.826;2024-03-02T07:02:29;138.32;;;35.70;;
27019;SDS011;76819;49.098;11.826;2024-03-02T07:07:32;164.05;;;37.83;;
27019;SDS011;76819;49.098;11.826;2024-03-02T07:12:37;206.82;;;38.63;;
27019;SDS011;76819;49.098;11.826;2024-03-02T07:17:40;63.72;;;35.45;;
27019;SDS011;76819;49.098;11.826;2024-03-02T07:22:42;217.30;;;41.97;;
27019;SDS011;76819;49.098;11.826;2024-03-02T07:27:46;176.00;;;39.53;;
27019;SDS011;76819;49.098;11.826;2024-03-02T07:32:49;196.95;;;39.92;;
27019;SDS011;76819;49.098;11.826;2024-03-02T07:37:52;233.93;;;42.03;;
27019;SDS011;76819;49.098;11.826;2024-03-02T07:42:58;346.42;;;47.72;;
27019;SDS011;76819;49.098;11.826;2024-03-02T07:48:00;238.85;;;54.67;;
27019;SDS011;76819;49.098;11.826;2024-03-02T07:53:05;312.83;;;57.65;;
27019;SDS011;76819;49.098;11.826;2024-03-02T07:58:10;247.40;;;55.53;;
27019;SDS011;76819;49.098;11.826;2024-03-02T15:05:09;44.92;;;28.20;;
27019;SDS011;76819;49.098;11.826;2024-03-02T15:10:12;44.90;;;27.75;;
27019;SDS011;76819;49.098;11.826;2024-03-02T15:15:14;44.85;;;27.48;;
27019;SDS011;76819;49.098;11.826;2024-03-02T15:20:18;41.25;;;26.52;;
27019;SDS011;76819;49.098;11.826;2024-03-02T15:25:22;35.58;;;24.80;;
27019;SDS011;76819;49.098;11.826;2024-03-02T15:30:25;44.25;;;26.73;;
27019;SDS011;76819;49.098;11.826;2024-03-02T15:35:29;41.00;;;25.42;;
27019;SDS011;76819;49.098;11.826;2024-03-02T15:40:32;36.20;;;24.48;;
27019;SDS011;76819;49.098;11.826;2024-03-02T15:45:35;32.47;;;22.95;;
27019;SDS011;76819;49.098;11.826;2024-03-02T15:50:39;32.10;;;21.90;;
27019;SDS011;76819;49.098;11.826;2024-03-02T15:55:42;37.38;;;22.15;;
27019;SDS011;76819;49.098;11.826;2024-03-02T16:00:45;32.28;;;21.83;;
27019;SDS011;76819;49.098;11.826;2024-03-02T16:05:49;38.15;;;24.33;;
27019;SDS011;76819;49.098;11.826;2024-03-02T16:10:51;33.63;;;22.88;;
27019;SDS011;76819;49.098;11.826;2024-03-02T16:15:54;32.65;;;21.40;;
27019;SDS011;76819;49.098;11.826;2024-03-02T16:20:58;31.55;;;22.25;;
27019;SDS011;76819;49.098;11.826;2024-03-02T16:26:01;33.08;;;21.65;;
27019;SDS011;76819;49.098;11.826;2024-03-02T16:31:04;31.75;;;22.42;;
27019;SDS011;76819;49.098;11.826;2024-03-02T16:36:08;34.83;;;22.60;;
27019;SDS011;76819;49.098;11.826;2024-03-02T16:41:11;32.38;;;21.20;;
27019;SDS011;76819;49.098;11.826;2024-03-02T16:46:13;32.35;;;21.35;;
27019;SDS011;76819;49.098;11.826;2024-03-02T16:51:17;31.92;;;21.63;;
27019;SDS011;76819;49.098;11.826;2024-03-02T16:56:20;35.13;;;22.80;;
27019;SDS011;76819;49.098;11.826;2024-03-02T17:01:23;39.97;;;24.42;;
27019;SDS011;76819;49.098;11.826;2024-03-02T17:06:28;43.33;;;24.45;;
27019;SDS011;76819;49.098;11.826;2024-03-02T17:11:31;35.22;;;21.77;;
27019;SDS011;76819;49.098;11.826;2024-03-02T17:16:35;34.20;;;21.98;;
27019;SDS011;76819;49.098;11.826;2024-03-02T17:21:39;35.85;;;20.73;;
27019;SDS011;76819;49.098;11.826;2024-03-02T17:26:41;43.67;;;24.05;;
27019;SDS011;76819;49.098;11.826;2024-03-02T17:31:44;31.38;;;20.23;;
27019;SDS011;76819;49.098;11.826;2024-03-02T17:36:48;42.75;;;24.10;;
27019;SDS011;76819;49.098;11.826;2024-03-02T17:41:51;33.97;;;20.08;;
27019;SDS011;76819;49.098;11.826;2024-03-02T17:46:54;33.42;;;20.70;;
27019;SDS011;76819;49.098;11.826;2024-03-02T17:52:01;28.38;;;18.65;;
27019;SDS011;76819;49.098;11.826;2024-03-02T17:57:04;32.95;;;20.30;;
27019;SDS011;76819;49.098;11.826;2024-03-02T18:02:07;36.85;;;20.55;;
27019;SDS011;76819;49.098;11.826;2024-03-02T18:07:11;29.27;;;18.58;;
27019;SDS011;76819;49.098;11.826;2024-03-02T18:12:14;38.05;;;23.40;;
27019;SDS011;76819;49.098;11.826;2024-03-02T18:17:17;33.83;;;21.55;;
27019;SDS011;76819;49.098;11.826;2024-03-02T18:22:21;30.20;;;19.88;;
27019;SDS011;76819;49.098;11.826;2024-03-02T18:27:24;28.48;;;18.17;;
27019;SDS011;76819;49.098;11.826;2024-03-02T18:32:26;36.83;;;21.75;;
27019;SDS011;76819;49.098;11.826;2024-03-02T18:37:30;29.20;;;18.23;;
27019;SDS011;76819;49.098;11.826;2024-03-02T18:42:33;27.65;;;17.92;;
27019;SDS011;76819;49.098;11.826;2024-03-02T18:47:36;28.17;;;18.08;;
27019;SDS011;76819;49.098;11.826;2024-03-02T18:52:41;27.08;;;17.50;;
27019;SDS011;76819;49.098;11.826;2024-03-02T18:57:47;24.80;;;16.45;;
27019;SDS011;76819;49.098;11.826;2024-03-02T19:02:50;28.30;;;17.67;;
27019;SDS011;76819;49.098;11.826;2024-03-02T19:07:55;27.33;;;16.80;;
27019;SDS011;76819;49.098;11.826;2024-03-02T19:12:57;29.95;;;17.00;;
27019;SDS011;76819;49.098;11.826;2024-03-02T19:18:00;28.55;;;18.08;;
27019;SDS011;76819;49.098;11.826;2024-03-02T19:23:04;25.20;;;18.00;;
27019;SDS011;76819;49.098;11.826;2024-03-02T19:28:08;27.67;;;18.45;;
27019;SDS011;76819;49.098;11.826;2024-03-02T19:33:11;27.85;;;19.00;;
27019;SDS011;76819;49.098;11.826;2024-03-02T19:38:16;31.45;;;19.00;;
27019;SDS011;76819;49.098;11.826;2024-03-02T19:43:19;32.83;;;20.13;;
27019;SDS011;76819;49.098;11.826;2024-03-02T19:48:22;29.98;;;19.88;;
27019;SDS011;76819;49.098;11.826;2024-03-02T19:53:26;30.77;;;20.27;;
27019;SDS011;76819;49.098;11.826;2024-03-02T19:58:29;33.00;;;21.55;;
27019;SDS011;76819;49.098;11.826;2024-03-02T20:03:33;35.58;;;22.55;;
27019;SDS011;76819;49.098;11.826;2024-03-02T20:08:37;32.67;;;21.92;;
27019;SDS011;76819;49.098;11.826;2024-03-02T20:13:40;36.95;;;23.17;;
27019;SDS011;76819;49.098;11.826;2024-03-02T20:18:42;41.15;;;23.45;;
27019;SDS011;76819;49.098;11.826;2024-03-02T20:23:46;32.25;;;22.95;;
27019;SDS011;76819;49.098;11.826;2024-03-02T20:28:49;37.30;;;23.52;;
27019;SDS011;76819;49.098;11.826;2024-03-02T20:33:53;37.28;;;22.98;;
27019;SDS011;76819;49.098;11.826;2024-03-02T20:38:57;36.75;;;25.23;;
27019;SDS011;76819;49.098;11.826;2024-03-02T20:44:00;38.47;;;25.38;;
27019;SDS011;76819;49.098;11.826;2024-03-02T20:49:03;39.08;;;26.25;;
27019;SDS011;76819;49.098;11.826;2024-03-02T20:54:08;37.67;;;25.35;;
27019;SDS011;76819;49.098;11.826;2024-03-02T20:59:10;41.80;;;28.52;;
